Time;durP1;ratioP1;P1;durP2;ratioP2;P2;SDS_P1;SDS_P2;PMS_P1;PMS_P2;Temp;Humidity;BMP_temperature;BMP_pressure;BME280_temperature;BME280_humidity;BME280_pressure;Samples;Min_cycle;Max_cycle;Signal;HPM_P1;HPM_P2
2022/04/10 00:00:28;;;;;;;;;;;3.60;99.90;;;;;;8381036;28;20368;-71
2022/04/10 00:04:30;;;;;;;;;;;3.60;99.90;;;;;;8386667;28;19924;-71
2022/04/10 00:08:31;;;;;;;;;;;3.50;99.90;;;;;;8388042;28;19940;-71
2022/04/10 00:12:34;;;;;;;;;;;3.50;99.90;;;;;;8377505;28;20233;-71
2022/04/10 00:16:35;;;;;;;;;;;3.30;99.90;;;;;;8378431;28;20240;-71
2022/04/10 00:20:37;;;;;;;;;;;3.20;99.90;;;;;;8379958;28;19986;-70
2022/04/10 00:24:39;;;;;;;;;;;3.00;99.90;;;;;;8373952;28;19932;-71
2022/04/10 00:28:41;;;;;;;;;;;2.90;99.90;;;;;;8385287;28;19943;-71
2022/04/10 00:32:43;;;;;;;;;;;2.80;99.90;;;;;;8370862;28;20307;-71
2022/04/10 00:36:45;;;;;;;;;;;2.80;99.90;;;;;;8379345;28;19928;-71
2022/04/10 00:40:46;;;;;;;;;;;2.90;99.90;;;;;;8380548;28;19928;-71
2022/04/10 00:44:48;;;;;;;;;;;2.90;99.90;;;;;;8380207;28;19924;-71
2022/04/10 00:48:50;;;;;;;;;;;2.80;99.90;;;;;;8409730;28;20318;-71
2022/04/10 00:52:52;;;;;;;;;;;2.70;99.90;;;;;;8382887;28;19945;-71
2022/04/10 00:56:55;;;;;;;;;;;2.60;99.90;;;;;;8378287;28;19980;-71
2022/04/10 01:00:57;;;;;;;;;;;2.70;99.90;;;;;;8375519;28;19928;-70
2022/04/10 01:04:59;;;;;;;;;;;2.70;99.90;;;;;;8372714;28;19932;-70
2022/04/10 01:09:02;;;;;;;;;;;2.70;99.90;;;;;;8391127;28;19925;-71
2022/04/10 01:13:04;;;;;;;;;;;2.60;99.90;;;;;;8369830;28;19924;-70
2022/04/10 01:17:07;;;;;;;;;;;2.60;99.90;;;;;;8377405;28;19928;-71
2022/04/10 01:21:11;;;;;;;;;;;2.50;99.90;;;;;;8387908;28;20394;-71
2022/04/10 01:25:13;;;;;;;;;;;2.50;99.90;;;;;;8386858;28;19925;-71
2022/04/10 01:29:15;;;;;;;;;;;2.50;99.90;;;;;;8366681;28;20352;-70
2022/04/10 01:33:16;;;;;;;;;;;2.40;99.90;;;;;;8379543;28;20291;-71
2022/04/10 01:37:18;;;;;;;;;;;2.40;99.90;;;;;;8384483;28;19939;-71
2022/04/10 01:41:20;;;;;;;;;;;2.30;99.90;;;;;;8373410;28;19936;-70
2022/04/10 01:45:22;;;;;;;;;;;2.20;99.90;;;;;;8377581;28;19932;-71
2022/04/10 01:49:23;;;;;;;;;;;2.10;99.90;;;;;;8418205;27;19933;-70
2022/04/10 01:53:25;;;;;;;;;;;2.00;99.90;;;;;;8383167;28;19944;-71
2022/04/10 01:57:27;;;;;;;;;;;1.90;99.90;;;;;;8383152;28;20367;-71
2022/04/10 02:01:29;;;;;;;;;;;1.80;99.90;;;;;;8380670;28;19963;-70
2022/04/10 02:05:30;;;;;;;;;;;1.70;99.90;;;;;;8384998;28;19925;-71
2022/04/10 02:09:32;;;;;;;;;;;1.60;99.90;;;;;;8371401;28;19936;-71
2022/04/10 02:13:34;;;;;;;;;;;1.60;99.90;;;;;;8369255;28;20392;-71
2022/04/10 02:17:35;;;;;;;;;;;1.50;99.90;;;;;;8375794;28;19932;-71
2022/04/10 02:21:37;;;;;;;;;;;1.50;99.90;;;;;;8375060;28;19925;-71
2022/04/10 02:25:38;;;;;;;;;;;1.40;99.90;;;;;;8408515;28;19925;-71
2022/04/10 02:29:40;;;;;;;;;;;1.40;99.90;;;;;;8375600;28;19924;-71
2022/04/10 02:33:42;;;;;;;;;;;1.30;99.90;;;;;;8374490;28;19929;-71
2022/04/10 02:37:45;;;;;;;;;;;1.30;99.90;;;;;;8379630;28;19952;-71
2022/04/10 02:41:47;;;;;;;;;;;1.30;99.90;;;;;;8381780;28;19925;-71
2022/04/10 02:45:48;;;;;;;;;;;1.20;99.90;;;;;;8382422;28;19924;-71
2022/04/10 02:49:50;;;;;;;;;;;1.20;99.90;;;;;;8392743;28;19928;-71
2022/04/10 02:53:52;;;;;;;;;;;1.10;99.90;;;;;;8386026;28;19936;-70
2022/04/10 02:57:53;;;;;;;;;;;1.10;99.90;;;;;;8394958;28;20012;-71
2022/04/10 03:01:55;;;;;;;;;;;1.10;99.90;;;;;;8393138;28;19935;-70
2022/04/10 03:05:57;;;;;;;;;;;1.00;99.90;;;;;;8384041;28;20380;-71
2022/04/10 03:09:58;;;;;;;;;;;1.00;99.90;;;;;;8387687;28;20820;-71
2022/04/10 03:14:00;;;;;;;;;;;0.90;99.90;;;;;;8377109;28;19978;-71
2022/04/10 03:18:02;;;;;;;;;;;0.90;99.90;;;;;;8374068;28;19928;-70
2022/04/10 03:22:04;;;;;;;;;;;0.90;99.90;;;;;;8378291;28;19925;-70
2022/04/10 03:26:05;;;;;;;;;;;0.90;99.90;;;;;;8381222;28;19932;-70
2022/04/10 03:30:08;;;;;;;;;;;0.80;99.90;;;;;;8369883;28;19935;-70
2022/04/10 03:34:09;;;;;;;;;;;0.80;99.90;;;;;;8385121;28;20287;-71
2022/04/10 03:38:11;;;;;;;;;;;0.70;99.90;;;;;;8374731;28;19924;-70
2022/04/10 03:42:13;;;;;;;;;;;0.70;99.90;;;;;;8392367;28;19932;-71
2022/04/10 03:46:14;;;;;;;;;;;0.70;99.90;;;;;;8388744;28;19935;-71
2022/04/10 03:50:16;;;;;;;;;;;0.60;99.90;;;;;;8381890;28;19963;-71
2022/04/10 03:54:18;;;;;;;;;;;0.60;99.90;;;;;;8370962;28;19925;-70
2022/04/10 03:58:19;;;;;;;;;;;0.60;99.90;;;;;;8390833;28;19924;-71
2022/04/10 04:02:22;;;;;;;;;;;0.60;99.90;;;;;;8391509;28;19925;-71
2022/04/10 04:06:24;;;;;;;;;;;0.60;99.90;;;;;;8388216;28;20024;-70
2022/04/10 04:10:26;;;;;;;;;;;0.50;99.90;;;;;;8367174;28;19932;-71
2022/04/10 04:14:27;;;;;;;;;;;0.50;99.90;;;;;;8381750;28;19929;-71
2022/04/10 04:18:29;;;;;;;;;;;0.50;99.90;;;;;;8387882;28;19931;-71
2022/04/10 04:22:30;;;;;;;;;;;0.50;99.90;;;;;;8382833;28;19924;-71
2022/04/10 04:26:32;;;;;;;;;;;0.50;99.90;;;;;;8388195;28;19928;-70
2022/04/10 04:30:38;;;;;;;;;;;0.50;99.90;;;;;;8388409;28;19924;-71
2022/04/10 04:34:40;;;;;;;;;;;0.50;99.90;;;;;;8385451;28;19925;-71
2022/04/10 04:38:41;;;;;;;;;;;0.50;99.90;;;;;;8377920;28;19925;-70
2022/04/10 04:42:44;;;;;;;;;;;0.50;99.90;;;;;;8388246;28;19932;-70
2022/04/10 04:46:46;;;;;;;;;;;0.40;99.90;;;;;;8378406;28;19929;-71
2022/04/10 04:50:48;;;;;;;;;;;0.40;99.90;;;;;;8384532;28;19932;-71
2022/04/10 04:54:50;;;;;;;;;;;0.40;99.90;;;;;;8376820;28;20004;-71
2022/04/10 04:58:52;;;;;;;;;;;0.40;99.90;;;;;;8389133;28;19925;-71
2022/04/10 05:02:53;;;;;;;;;;;0.40;99.90;;;;;;8385262;28;20379;-70
2022/04/10 05:06:55;;;;;;;;;;;0.40;99.90;;;;;;8375547;28;19931;-70
2022/04/10 05:10:58;;;;;;;;;;;0.40;99.90;;;;;;8385185;28;19932;-70
2022/04/10 05:15:00;;;;;;;;;;;0.40;99.90;;;;;;8373203;28;19979;-71
2022/04/10 05:19:03;;;;;;;;;;;0.50;99.90;;;;;;8376834;28;19993;-70
2022/04/10 05:23:05;;;;;;;;;;;0.50;99.90;;;;;;8380299;28;20269;-70
2022/04/10 05:27:06;;;;;;;;;;;0.60;99.90;;;;;;8380381;28;19924;-71
2022/04/10 05:31:08;;;;;;;;;;;0.60;99.90;;;;;;8384684;28;20035;-71
2022/04/10 05:35:10;;;;;;;;;;;0.70;99.90;;;;;;8376783;28;19931;-71
2022/04/10 05:39:12;;;;;;;;;;;0.80;99.90;;;;;;8380154;28;20152;-71
2022/04/10 05:43:13;;;;;;;;;;;0.90;99.90;;;;;;8389803;28;19951;-71
2022/04/10 05:47:18;;;;;;;;;;;1.00;99.90;;;;;;8388438;28;20219;-71
2022/04/10 05:51:20;;;;;;;;;;;1.10;99.90;;;;;;8398679;28;19999;-71
2022/04/10 05:55:23;;;;;;;;;;;1.20;99.90;;;;;;8385802;28;20399;-70
2022/04/10 05:59:24;;;;;;;;;;;1.30;99.90;;;;;;8387131;28;20323;-71
2022/04/10 06:03:26;;;;;;;;;;;1.50;99.90;;;;;;8389364;28;20335;-71
2022/04/10 06:07:28;;;;;;;;;;;1.60;99.90;;;;;;8376617;28;19928;-71
2022/04/10 06:11:29;;;;;;;;;;;1.70;99.90;;;;;;8371475;28;19932;-71
2022/04/10 06:15:31;;;;;;;;;;;1.80;99.90;;;;;;8415660;28;19925;-71
2022/04/10 06:19:33;;;;;;;;;;;1.90;99.90;;;;;;8379085;28;19924;-71
2022/04/10 06:23:35;;;;;;;;;;;1.90;99.90;;;;;;8374396;28;20327;-71
2022/04/10 06:27:36;;;;;;;;;;;2.00;99.90;;;;;;8385493;28;20364;-71
2022/04/10 06:31:38;;;;;;;;;;;2.10;99.90;;;;;;8376146;28;19932;-71
2022/04/10 06:35:40;;;;;;;;;;;2.10;99.90;;;;;;8381023;28;19963;-71
2022/04/10 06:39:41;;;;;;;;;;;2.30;99.90;;;;;;8414579;28;19928;-70
2022/04/10 06:43:43;;;;;;;;;;;2.50;99.90;;;;;;8380830;28;19932;-70
2022/04/10 06:47:45;;;;;;;;;;;2.70;99.90;;;;;;8378737;28;19924;-71
2022/04/10 06:51:47;;;;;;;;;;;2.80;99.90;;;;;;8386018;28;20276;-71
2022/04/10 06:55:48;;;;;;;;;;;3.00;99.90;;;;;;8385593;28;20291;-70
2022/04/10 06:59:50;;;;;;;;;;;3.20;99.90;;;;;;8383653;28;19925;-71
2022/04/10 07:03:52;;;;;;;;;;;3.40;99.90;;;;;;8386124;28;19924;-71
2022/04/10 07:07:54;;;;;;;;;;;3.60;99.90;;;;;;8372149;28;21489;-70
2022/04/10 07:11:56;;;;;;;;;;;3.80;99.90;;;;;;8373214;28;20377;-71
2022/04/10 07:15:58;;;;;;;;;;;3.90;99.90;;;;;;8373885;28;19935;-70
2022/04/10 07:19:59;;;;;;;;;;;4.00;99.90;;;;;;8373817;28;20329;-71
2022/04/10 07:24:01;;;;;;;;;;;4.10;99.90;;;;;;8379049;28;20380;-71
2022/04/10 07:28:03;;;;;;;;;;;4.20;99.90;;;;;;8381286;28;19943;-71
2022/04/10 07:32:05;;;;;;;;;;;4.30;99.90;;;;;;8384276;28;20407;-71
2022/04/10 07:36:07;;;;;;;;;;;4.50;99.90;;;;;;8382628;28;20389;-71
2022/04/10 07:40:09;;;;;;;;;;;4.70;99.90;;;;;;8390800;28;19932;-71
2022/04/10 07:44:11;;;;;;;;;;;5.10;99.90;;;;;;8384163;28;19932;-71
2022/04/10 07:48:12;;;;;;;;;;;5.30;99.90;;;;;;8376147;28;19928;-71
2022/04/10 07:52:15;;;;;;;;;;;5.50;99.90;;;;;;8393134;28;20269;-70
2022/04/10 07:56:16;;;;;;;;;;;5.80;99.90;;;;;;8371169;28;19955;-71
2022/04/10 08:00:18;;;;;;;;;;;6.00;99.90;;;;;;8377253;28;19944;-71
2022/04/10 08:04:20;;;;;;;;;;;6.20;99.90;;;;;;8382134;28;20403;-71
2022/04/10 08:08:22;;;;;;;;;;;6.40;99.90;;;;;;8396721;28;19943;-71
2022/04/10 08:12:24;;;;;;;;;;;6.60;99.90;;;;;;8384438;28;20339;-71
2022/04/10 08:16:26;;;;;;;;;;;6.90;99.90;;;;;;8400429;28;20360;-71
2022/04/10 08:20:28;;;;;;;;;;;7.10;99.90;;;;;;8390414;28;19936;-71
2022/04/10 08:24:30;;;;;;;;;;;7.30;99.90;;;;;;8395889;28;19943;-71
2022/04/10 08:28:32;;;;;;;;;;;7.50;99.90;;;;;;8420836;27;19939;-71
2022/04/10 08:32:37;;;;;;;;;;;7.60;99.90;;;;;;8386395;28;19932;-71
2022/04/10 08:36:39;;;;;;;;;;;7.70;99.90;;;;;;8394420;28;20052;-71
2022/04/10 08:40:41;;;;;;;;;;;7.90;99.90;;;;;;8388552;28;19921;-71
2022/04/10 08:44:43;;;;;;;;;;;8.00;99.90;;;;;;8391954;28;19927;-71
2022/04/10 08:48:45;;;;;;;;;;;8.00;99.90;;;;;;8392965;28;19928;-71
2022/04/10 08:52:49;;;;;;;;;;;8.10;99.90;;;;;;8397682;28;19924;-71
2022/04/10 08:56:51;;;;;;;;;;;8.20;99.90;;;;;;8394837;28;19982;-71
2022/04/10 09:00:52;;;;;;;;;;;8.30;99.90;;;;;;8391815;28;19928;-71
2022/04/10 09:04:54;;;;;;;;;;;8.40;99.90;;;;;;8395436;28;19924;-71
2022/04/10 09:09:12;;;;;;;;;;;8.50;99.90;;;;;;8392995;28;21860;-71
2022/04/10 09:13:14;;;;;;;;;;;8.40;99.90;;;;;;8385411;28;19925;-71
2022/04/10 09:17:17;;;;;;;;;;;8.60;99.90;;;;;;8397340;28;20344;-71
2022/04/10 09:21:23;;;;;;;;;;;8.90;99.90;;;;;;8400701;28;19924;-71
2022/04/10 09:25:24;;;;;;;;;;;9.00;99.90;;;;;;8395469;28;19924;-71
2022/04/10 09:29:27;;;;;;;;;;;9.00;99.90;;;;;;8394609;28;19943;-71
2022/04/10 09:33:47;;;;;;;;;;;8.90;99.90;;;;;;8390865;28;19931;-71
2022/04/10 09:37:49;;;;;;;;;;;8.70;99.90;;;;;;8372979;28;20327;-71
2022/04/10 09:42:00;;;;;;;;;;;8.70;99.90;;;;;;8342480;28;19928;-71
2022/04/10 09:46:10;;;;;;;;;;;9.00;99.90;;;;;;8363351;28;20106;-71
2022/04/10 09:50:12;;;;;;;;;;;9.50;99.90;;;;;;8383931;28;19924;-71
2022/04/10 09:54:14;;;;;;;;;;;9.90;99.90;;;;;;8384658;28;19932;-71
2022/04/10 09:58:16;;;;;;;;;;;10.10;99.90;;;;;;8381052;28;19924;-71
2022/04/10 10:02:20;;;;;;;3.90;1.00;;;10.30;99.90;;;;;;8378982;28;20291;-70
2022/04/10 10:06:23;;;;;;;;;;;10.50;99.90;;;;;;8378260;28;19925;-71
2022/04/10 10:10:28;;;;;;;;;;;10.60;99.90;;;;;;8376659;28;19929;-71
2022/04/10 10:14:31;;;;;;;;;;;10.60;99.90;;;;;;8379471;28;19925;-71
2022/04/10 10:18:33;;;;;;;;;;;10.90;99.90;;;;;;8383241;28;19931;-71
2022/04/10 10:22:35;;;;;;;;;;;11.30;99.90;;;;;;8381397;28;20226;-71
2022/04/10 10:26:47;;;;;;;;;;;11.60;99.90;;;;;;8393173;28;19936;-70
2022/04/10 10:30:51;;;;;;;;;;;11.90;99.90;;;;;;8389096;28;19924;-71
2022/04/10 10:34:54;;;;;;;;;;;11.80;99.90;;;;;;8383219;28;20375;-71
2022/04/10 10:38:57;;;;;;;4.20;0.80;;;12.00;99.90;;;;;;8386114;28;19928;-71
2022/04/10 10:43:01;;;;;;;3.85;1.17;;;12.40;99.90;;;;;;8379846;28;20412;-71
2022/04/10 10:47:03;;;;;;;;;;;12.50;99.90;;;;;;8381584;28;20053;-71
2022/04/10 10:51:10;;;;;;;;;;;12.80;99.90;;;;;;8385132;28;20316;-71
2022/04/10 10:55:15;;;;;;;;;;;13.40;99.90;;;;;;8386418;28;19920;-71
2022/04/10 10:59:21;;;;;;;;;;;13.80;99.90;;;;;;8384203;28;20292;-71
2022/04/10 11:03:23;;;;;;;;;;;14.20;99.90;;;;;;8390349;28;19920;-71
2022/04/10 11:07:28;;;;;;;;;;;14.40;99.90;;;;;;8395790;28;19925;-71
2022/04/10 11:11:37;;;;;;;;;;;14.60;99.90;;;;;;8392465;28;20287;-71
2022/04/10 11:16:09;;;;;;;4.80;1.00;;;14.70;99.90;;;;;;8397486;28;19998;-71
2022/04/10 11:20:18;;;;;;;;;;;14.30;99.90;;;;;;8387323;28;20044;-71
2022/04/10 11:24:22;;;;;;;;;;;13.60;99.90;;;;;;8400305;28;19927;-71
2022/04/10 11:28:24;;;;;;;;;;;13.60;99.90;;;;;;8394520;28;19932;-71
2022/04/10 11:32:39;;;;;;;;;;;13.70;99.90;;;;;;8393286;28;19920;-71
2022/04/10 11:36:47;;;;;;;3.28;1.20;;;14.00;99.90;;;;;;8397318;28;20375;-70
2022/04/10 11:40:50;;;;;;;;;;;14.50;99.90;;;;;;8389971;28;20049;-71
2022/04/10 11:44:53;;;;;;;;;;;14.60;99.90;;;;;;8390592;28;20045;-71
2022/04/10 11:48:55;;;;;;;;;;;14.90;99.90;;;;;;8396662;28;19924;-71
2022/04/10 11:53:07;;;;;;;;;;;15.30;99.90;;;;;;8399139;28;19920;-71
2022/04/10 11:57:08;;;;;;;;;;;15.20;99.90;;;;;;8404480;28;20383;-71
2022/04/10 12:01:12;;;;;;;4.20;1.20;;;14.50;99.90;;;;;;8402012;28;19943;-71
2022/04/10 12:05:13;;;;;;;;;;;14.10;99.90;;;;;;8391723;28;19939;-71
2022/04/10 12:09:15;;;;;;;6.07;1.33;;;14.70;99.90;;;;;;8394300;28;19944;-71
2022/04/10 12:13:17;;;;;;;3.28;1.10;;;15.50;99.90;;;;;;8393326;28;20392;-71
2022/04/10 12:17:19;;;;;;;;;;;16.40;99.90;;;;;;8399354;28;20108;-71
2022/04/10 12:21:22;;;;;;;;;;;16.60;99.90;;;;;;8402462;28;19920;-71
2022/04/10 12:25:24;;;;;;;3.55;1.10;;;15.90;99.90;;;;;;8404780;28;20368;-71
2022/04/10 12:29:30;;;;;;;3.53;0.98;;;15.10;99.90;;;;;;8396013;28;20049;-71
2022/04/10 12:33:32;;;;;;;3.30;0.82;;;14.50;99.90;;;;;;8392377;28;20044;-71
2022/04/10 12:37:34;;;;;;;4.40;1.50;;;14.10;99.90;;;;;;8393645;28;20052;-71
2022/04/10 12:41:36;;;;;;;5.05;1.20;;;13.90;99.90;;;;;;8397241;28;20059;-71
2022/04/10 12:45:39;;;;;;;3.17;1.10;;;14.00;99.90;;;;;;8395245;28;20044;-71
2022/04/10 12:49:41;;;;;;;;;;;14.20;99.90;;;;;;8395384;28;20261;-70
2022/04/10 12:53:46;;;;;;;;;;;14.40;99.90;;;;;;8397405;28;19920;-71
2022/04/10 12:58:11;;;;;;;;;;;14.60;99.90;;;;;;8399836;28;19928;-71
2022/04/10 13:02:23;;;;;;;;;;;14.80;99.90;;;;;;8380199;28;19932;-71
2022/04/10 13:06:44;;;;;;;;;;;14.70;99.90;;;;;;8357867;28;20020;-71
2022/04/10 13:10:50;;;;;;;;;;;14.80;99.90;;;;;;8356008;28;20360;-71
2022/04/10 13:15:01;;;;;;;;;;;14.70;99.90;;;;;;8356561;28;19923;-71
2022/04/10 13:19:03;;;;;;;;;;;14.10;99.90;;;;;;8359333;28;19936;-71
2022/04/10 13:23:06;;;;;;;;;;;13.80;99.90;;;;;;8355572;28;20172;-71
2022/04/10 13:27:09;;;;;;;;;;;13.60;99.90;;;;;;8357412;28;19931;-71
2022/04/10 13:31:11;;;;;;;;;;;13.40;99.90;;;;;;8358136;28;20288;-71
2022/04/10 13:35:12;;;;;;;;;;;13.70;99.90;;;;;;8355903;28;19928;-72
2022/04/10 13:39:14;;;;;;;;;;;13.90;99.90;;;;;;8361703;28;19928;-71
2022/04/10 13:43:16;;;;;;;;;;;14.20;99.90;;;;;;8358968;28;19929;-71
2022/04/10 13:47:17;;;;;;;;;;;14.50;99.90;;;;;;8356733;28;19931;-71
2022/04/10 13:51:19;;;;;;;;;;;14.80;99.90;;;;;;8357961;28;20031;-71
2022/04/10 13:55:21;;;;;;;;;;;15.00;99.90;;;;;;8359275;28;19924;-71
2022/04/10 13:59:22;;;;;;;;;;;14.90;99.90;;;;;;8388473;27;19921;-70
2022/04/10 14:03:24;;;;;;;;;;;14.70;99.90;;;;;;8355071;28;19936;-71
2022/04/10 14:07:26;;;;;;;;;;;14.80;99.90;;;;;;8354381;28;19925;-71
2022/04/10 14:11:30;;;;;;;;;;;15.50;99.90;;;;;;8358993;28;19927;-71
2022/04/10 14:15:34;;;;;;;;;;;16.40;99.90;;;;;;8388501;28;20292;-71
2022/04/10 14:19:35;;;;;;;;;;;17.60;99.90;;;;;;8355410;28;19925;-71
2022/04/10 14:23:37;;;;;;;;;;;18.70;99.90;;;;;;8353763;28;19924;-71
2022/04/10 14:27:40;;;;;;;;;;;19.20;99.90;;;;;;8355685;28;19928;-71
2022/04/10 14:31:46;;;;;;;2.30;0.90;;;18.60;99.90;;;;;;8353788;28;19921;-71
2022/04/10 14:35:48;;;;;;;2.60;1.00;;;17.60;99.90;;;;;;8358742;28;20148;-71
2022/04/10 14:39:50;;;;;;;2.10;0.90;;;17.40;99.90;;;;;;8361090;28;20052;-71
2022/04/10 14:43:51;;;;;;;;;;;17.60;99.90;;;;;;8362113;28;20417;-71
2022/04/10 14:47:53;;;;;;;;;;;18.00;99.90;;;;;;8361333;28;20372;-71
2022/04/10 14:51:55;;;;;;;;;;;18.80;99.90;;;;;;8359537;28;20317;-71
2022/04/10 14:55:57;;;;;;;;;;;18.90;99.90;;;;;;8362821;28;19971;-71
2022/04/10 14:59:58;;;;;;;;;;;18.80;99.90;;;;;;8392576;28;19925;-71
2022/04/10 15:04:00;;;;;;;;;;;18.70;99.90;;;;;;8361864;28;19928;-71
2022/04/10 15:08:02;;;;;;;3.88;1.00;;;18.30;99.90;;;;;;8362904;28;19924;-71
2022/04/10 15:12:05;;;;;;;2.45;1.00;;;17.70;99.90;;;;;;8374197;28;20056;-71
2022/04/10 15:16:07;;;;;;;;;;;17.70;99.90;;;;;;8392748;28;20419;-71
2022/04/10 15:20:12;;;;;;;;;;;18.40;99.90;;;;;;8362692;28;19931;-71
2022/04/10 15:24:14;;;;;;;;;;;19.30;99.90;;;;;;8385238;28;19928;-71
2022/04/10 15:28:16;;;;;;;;;;;19.80;99.90;;;;;;8358212;28;19928;-71
2022/04/10 15:32:18;;;;;;;;;;;20.00;99.90;;;;;;8359300;28;19928;-71
2022/04/10 15:36:20;;;;;;;;;;;20.20;99.90;;;;;;8359011;28;19921;-71
2022/04/10 15:40:21;;;;;;;;;;;20.80;99.90;;;;;;8358589;28;19920;-71
2022/04/10 15:44:23;;;;;;;;;;;21.40;99.90;;;;;;8357586;28;19921;-71
2022/04/10 15:48:25;;;;;;;;;;;22.00;99.90;;;;;;8357593;28;19936;-71
2022/04/10 15:52:26;;;;;;;;;;;22.40;99.90;;;;;;8356492;28;19931;-71
2022/04/10 15:56:33;;;;;;;;;;;22.80;99.90;;;;;;8361389;28;19946;-71
2022/04/10 16:00:34;;;;;;;;;;;22.50;99.90;;;;;;8355476;28;19921;-71
2022/04/10 16:04:36;;;;;;;;;;;21.90;99.90;;;;;;8354307;28;19950;-71
2022/04/10 16:08:38;;;;;;;2.25;0.95;;;21.70;99.90;;;;;;8357567;28;19944;-71
2022/04/10 16:12:40;;;;;;;;;;;21.20;99.90;;;;;;8355328;28;20045;-71
2022/04/10 16:16:44;;;;;;;;;;;21.00;99.90;;;;;;8358892;28;19924;-71
2022/04/10 16:20:47;;;;;;;;;;;20.90;99.90;;;;;;8357501;28;20377;-71
2022/04/10 16:24:49;;;;;;;;;;;20.90;99.90;;;;;;8357667;28;19920;-71
2022/04/10 16:33:10;;;;;;;;;;;21.30;99.90;;;;;;8356571;28;20287;-72
2022/04/10 16:37:12;;;;;;;;;;;21.80;99.90;;;;;;8355683;28;19920;-71
2022/04/10 16:41:14;;;;;;;;;;;22.10;99.90;;;;;;8361008;28;19921;-71
2022/04/10 16:45:16;;;;;;;;;;;22.10;99.90;;;;;;8393501;27;19928;-71
2022/04/10 16:49:18;;;;;;;;;;;22.10;99.90;;;;;;8360737;28;19920;-71
2022/04/10 16:53:19;;;;;;;;;;;21.90;99.10;;;;;;8356477;28;19924;-71
2022/04/10 16:57:23;;;;;;;4.25;1.67;;;21.20;95.00;;;;;;8386759;28;20360;-71
2022/04/10 17:01:27;;;;;;;4.38;1.55;;;20.70;97.00;;;;;;8354949;28;20091;-71
2022/04/10 17:05:29;;;;;;;3.88;1.40;;;20.40;96.00;;;;;;8366292;28;20127;-71
2022/04/10 17:09:31;;;;;;;;;;;20.10;95.70;;;;;;8360797;28;20041;-71
2022/04/10 17:13:33;;;;;;;;;;;19.90;95.20;;;;;;8354869;28;19921;-71
2022/04/10 17:17:34;;;;;;;;;;;19.90;95.00;;;;;;8356485;28;19966;-71
2022/04/10 17:21:36;;;;;;;;;;;19.80;93.80;;;;;;8358503;28;19928;-71
2022/04/10 17:25:37;;;;;;;;;;;19.50;92.20;;;;;;8390239;28;19925;-71
2022/04/10 17:29:39;;;;;;;;;;;18.90;91.30;;;;;;8354842;28;19936;-71
2022/04/10 17:33:41;;;;;;;;;;;18.20;90.50;;;;;;8356465;28;20387;-71
2022/04/10 17:37:43;;;;;;;;;;;18.00;90.90;;;;;;8356136;28;19931;-71
2022/04/10 17:41:44;;;;;;;;;;;17.90;90.90;;;;;;8354447;28;19939;-71
2022/04/10 17:45:46;;;;;;;;;;;17.90;90.90;;;;;;8352419;28;19921;-71
2022/04/10 17:49:48;;;;;;;;;;;17.80;90.60;;;;;;8361954;28;19924;-71
2022/04/10 17:53:49;;;;;;;;;;;17.50;90.50;;;;;;8352922;28;19928;-71
2022/04/10 17:57:52;;;;;;;;;;;17.20;90.70;;;;;;8354608;28;19933;-71
2022/04/10 18:01:53;;;;;;;;;;;16.80;90.90;;;;;;8353275;28;19921;-71
2022/04/10 18:05:55;;;;;;;;;;;16.40;91.20;;;;;;8383283;28;19921;-71
2022/04/10 18:09:57;;;;;;;;;;;16.00;91.40;;;;;;8347651;28;19931;-71
2022/04/10 18:13:59;;;;;;;;;;;15.60;91.70;;;;;;8351187;28;20011;-71
2022/04/10 18:18:01;;;;;;;;;;;15.20;91.50;;;;;;8357004;28;20046;-71
2022/04/10 18:22:02;;;;;;;;;;;14.70;91.50;;;;;;8355637;28;20376;-71
2022/04/10 18:26:04;;;;;;;;;;;14.30;91.70;;;;;;8387205;28;19928;-70
2022/04/10 18:30:06;;;;;;;;;;;13.90;91.60;;;;;;8388742;28;19935;-71
2022/04/10 18:34:07;;;;;;;;;;;13.60;91.60;;;;;;8364490;28;20260;-71
2022/04/10 18:38:09;;;;;;;;;;;13.40;91.70;;;;;;8358552;28;19939;-71
2022/04/10 18:47:14;;;;;;;;;;;12.80;91.90;;;;;;8349978;28;19927;-70
2022/04/10 18:51:15;;;;;;;;;;;12.50;92.10;;;;;;8355202;28;21673;-71
2022/04/10 18:55:17;;;;;;;;;;;12.40;91.90;;;;;;8356976;28;23474;-71
2022/04/10 19:09:33;;;;;;;;;;;11.70;91.80;;;;;;8338446;28;19936;-70
2022/04/10 19:13:34;;;;;;;;;;;11.40;91.80;;;;;;8362223;28;19928;-71
2022/04/10 19:17:36;;;;;;;;;;;11.30;91.80;;;;;;8361810;28;19933;-71
2022/04/10 19:21:38;;;;;;;;;;;11.10;91.80;;;;;;8368052;28;19943;-71
2022/04/10 19:25:40;;;;;;;;;;;10.90;91.80;;;;;;8365957;28;19929;-70
2022/04/10 19:29:42;;;;;;;;;;;10.90;91.70;;;;;;8364134;28;19929;-71
2022/04/10 19:33:44;;;;;;;;;;;10.70;91.60;;;;;;8363881;28;20043;-71
2022/04/10 19:37:45;;;;;;;;;;;10.60;91.60;;;;;;8366512;28;19931;-70
2022/04/10 19:41:48;;;;;;;;;;;10.40;91.60;;;;;;8367601;28;20342;-70
2022/04/10 19:45:50;;;;;;;;;;;10.30;91.70;;;;;;8398979;28;19932;-71
2022/04/10 19:49:52;;;;;;;;;;;10.20;91.70;;;;;;8366735;28;19928;-70
2022/04/10 19:53:57;;;;;;;;;;;10.00;91.70;;;;;;8363358;28;19921;-71
2022/04/10 19:57:59;;;;;;;4.40;1.98;;;9.80;92.10;;;;;;8363110;28;20005;-71
2022/04/10 20:02:00;;;;;;;5.65;2.05;;;9.60;92.30;;;;;;8363380;28;20049;-71
2022/04/10 20:06:03;;;;;;;4.20;2.08;;;9.50;92.20;;;;;;8363150;28;20045;-71
2022/04/10 20:10:06;;;;;;;4.18;1.80;;;9.50;92.30;;;;;;8363177;28;20045;-71
2022/04/10 20:14:09;;;;;;;4.30;2.08;;;9.40;92.30;;;;;;8365269;28;20487;-71
2022/04/10 20:18:11;;;;;;;6.80;2.20;;;9.30;92.40;;;;;;8364680;28;20472;-71
2022/04/10 20:22:13;;;;;;;5.93;2.55;;;9.20;92.40;;;;;;8364238;28;20414;-70
2022/04/10 20:26:15;;;;;;;5.22;2.05;;;9.10;92.40;;;;;;8365958;28;20041;-71
2022/04/10 20:30:17;;;;;;;8.73;3.75;;;9.00;92.40;;;;;;8364285;28;20048;-71
2022/04/10 20:34:19;;;;;;;8.88;3.90;;;8.90;92.40;;;;;;8359652;28;20053;-71
2022/04/10 20:38:21;;;;;;;9.50;4.68;;;8.80;92.40;;;;;;8360621;28;20080;-71
2022/04/10 20:42:23;;;;;;;11.07;5.57;;;8.60;92.40;;;;;;8369087;28;20053;-71
2022/04/10 20:46:25;;;;;;;9.05;4.88;;;8.50;92.60;;;;;;8364359;28;20340;-71
2022/04/10 20:50:30;;;;;;;8.23;3.83;;;8.50;92.70;;;;;;8378343;28;20044;-71
2022/04/10 20:54:31;;;;;;;7.50;3.53;;;8.40;92.60;;;;;;8359475;28;20045;-71
2022/04/10 20:58:33;;;;;;;7.88;3.20;;;8.40;92.60;;;;;;8394024;27;20049;-71
2022/04/10 21:02:35;;;;;;;6.25;2.90;;;8.30;92.70;;;;;;8369516;28;20350;-71
2022/04/10 21:06:37;;;;;;;5.07;2.58;;;8.20;92.70;;;;;;8378702;28;20041;-71
2022/04/10 21:10:54;;;;;;;5.28;2.42;;;8.10;92.70;;;;;;8415358;27;20416;-71
2022/04/10 21:14:56;;;;;;;5.30;2.00;;;8.00;92.60;;;;;;8385628;28;20051;-71
2022/04/10 21:18:58;;;;;;;;;;;7.90;92.90;;;;;;8386826;28;20048;-70
2022/04/10 21:23:00;;;;;;;;;;;7.80;92.50;;;;;;8375267;28;19927;-70
2022/04/10 21:27:01;;;;;;;;;;;7.70;92.50;;;;;;8378338;28;19921;-71
2022/04/10 21:31:03;;;;;;;;;;;7.60;92.60;;;;;;8383683;28;19932;-71
2022/04/10 21:35:05;;;;;;;4.72;2.28;;;7.60;92.70;;;;;;8375646;28;19921;-70
2022/04/10 21:39:07;;;;;;;5.88;2.22;;;7.50;92.60;;;;;;8372045;28;20052;-70
2022/04/10 21:43:09;;;;;;;4.82;1.88;;;7.40;92.60;;;;;;8382923;28;20052;-71
2022/04/10 21:47:10;;;;;;;6.38;2.45;;;7.30;92.70;;;;;;8404896;28;20047;-71
2022/04/10 21:51:12;;;;;;;5.10;2.22;;;7.10;92.70;;;;;;8386959;28;20480;-71
2022/04/10 21:55:14;;;;;;;4.70;2.40;;;7.00;92.80;;;;;;8389452;28;20056;-70
2022/04/10 21:59:16;;;;;;;4.97;2.30;;;6.90;92.90;;;;;;8389397;28;20109;-71
2022/04/10 22:03:18;;;;;;;6.18;2.80;;;6.80;92.90;;;;;;8370526;28;20052;-71
2022/04/10 22:07:20;;;;;;;5.38;2.60;;;6.70;93.00;;;;;;8376996;28;20457;-70
2022/04/10 22:11:23;;;;;;;;;;;6.60;93.00;;;;;;8379230;28;20049;-71
2022/04/10 22:15:25;;;;;;;;;;;6.60;93.10;;;;;;8384438;28;19928;-72
2022/04/10 22:19:27;;;;;;;5.95;2.78;;;6.50;93.10;;;;;;8377935;28;19921;-70
2022/04/10 22:23:29;;;;;;;;;;;6.50;93.20;;;;;;8378878;28;20044;-71
2022/04/10 22:27:30;;;;;;;7.15;3.90;;;6.40;93.20;;;;;;8387517;28;19928;-71
2022/04/10 22:31:32;;;;;;;6.50;3.80;;;6.40;93.30;;;;;;8376043;28;20369;-70
2022/04/10 22:35:34;;;;;;;6.85;3.75;;;6.40;93.30;;;;;;8378440;28;20098;-71
2022/04/10 22:39:36;;;;;;;6.75;3.35;;;6.40;93.40;;;;;;8379147;28;20044;-71
2022/04/10 22:43:37;;;;;;;5.65;3.45;;;6.40;93.40;;;;;;8381635;28;20044;-70
2022/04/10 22:47:39;;;;;;;6.85;3.97;;;6.30;93.30;;;;;;8380354;28;20048;-71
2022/04/10 22:51:41;;;;;;;8.05;4.57;;;6.30;93.30;;;;;;8377395;28;20071;-70
2022/04/10 22:55:43;;;;;;;6.80;4.20;;;6.20;93.30;;;;;;8374633;28;20067;-71
2022/04/10 22:59:45;;;;;;;7.38;4.78;;;6.10;93.40;;;;;;8380648;28;22130;-71
2022/04/10 23:03:47;;;;;;;8.13;4.47;;;6.10;93.40;;;;;;8383096;28;20045;-71
2022/04/10 23:07:49;;;;;;;6.40;4.07;;;6.10;93.50;;;;;;8382995;28;20053;-70
2022/04/10 23:11:51;;;;;;;7.50;3.72;;;6.10;93.50;;;;;;8371804;28;20056;-70
2022/04/10 23:15:53;;;;;;;5.55;3.22;;;6.00;93.50;;;;;;8386809;28;20072;-71
2022/04/10 23:19:55;;;;;;;5.93;3.00;;;6.00;93.50;;;;;;8387702;28;20536;-71
2022/04/10 23:23:56;;;;;;;5.30;2.80;;;6.00;93.50;;;;;;8382957;28;20049;-71
2022/04/10 23:27:58;;;;;;;7.60;3.58;;;5.90;93.50;;;;;;8384858;28;20045;-70